Time;durP1;ratioP1;P1;durP2;ratioP2;P2;SDS_P1;SDS_P2;PMS_P1;PMS_P2;Temp;Humidity;BMP_temperature;BMP_pressure;BME280_temperature;BME280_humidity;BME280_pressure;Samples;Min_cycle;Max_cycle;Signal;HPM_P1;HPM_P2
2021/03/28 00:00:56;;;;;;;7.70;2.57;;;;;;;2.17;80.28;101761.81;5096409;28;20187;-71
2021/03/28 00:03:25;;;;;;;7.70;2.70;;;;;;;2.19;79.98;101766.19;5095399;28;20273;-71
2021/03/28 00:05:52;;;;;;;8.90;2.80;;;;;;;2.17;80.25;101751.25;5095123;28;20195;-69
2021/03/28 00:08:21;;;;;;;10.03;2.67;;;;;;;2.26;79.85;101758.28;5094664;28;20643;-70
2021/03/28 00:10:51;;;;;;;8.87;3.17;;;;;;;2.28;79.82;101752.13;5094825;28;20168;-69
2021/03/28 00:13:23;;;;;;;8.30;3.47;;;;;;;2.18;80.20;101761.78;5094801;28;20171;-71
2021/03/28 00:15:57;;;;;;;8.40;3.20;;;;;;;2.20;80.44;101767.94;5077581;28;20175;-70
2021/03/28 00:18:29;;;;;;;9.93;3.00;;;;;;;2.10;80.86;101765.34;5094154;28;20195;-70
2021/03/28 00:21:09;;;;;;;11.03;3.73;;;;;;;2.08;80.76;101765.34;5095636;28;20724;-71
2021/03/28 00:23:52;;;;;;;7.67;3.20;;;;;;;2.01;81.19;101773.28;5094472;28;20160;-70
2021/03/28 00:26:36;;;;;;;9.20;3.20;;;;;;;2.08;81.35;101786.41;5095759;28;20165;-70
2021/03/28 00:29:23;;;;;;;7.70;2.77;;;;;;;2.10;81.16;101778.50;5094915;28;20207;-70
2021/03/28 00:32:00;;;;;;;10.07;2.73;;;;;;;2.16;81.18;101789.03;5095449;28;20231;-71
2021/03/28 00:34:27;;;;;;;6.23;2.63;;;;;;;2.15;80.94;101780.25;5096101;28;20221;-70
2021/03/28 00:37:01;;;;;;;11.30;2.97;;;;;;;2.12;81.13;101785.53;5094862;28;20184;-71
2021/03/28 00:39:35;;;;;;;8.63;2.60;;;;;;;2.07;81.70;101787.31;5095810;28;20218;-70
2021/03/28 00:42:20;;;;;;;8.40;3.20;;;;;;;2.11;81.58;101791.66;5096274;28;20194;-70
2021/03/28 00:44:51;;;;;;;6.43;3.17;;;;;;;1.94;82.01;101798.75;5096392;28;20163;-71
2021/03/28 00:47:19;;;;;;;7.17;3.07;;;;;;;1.97;82.06;101805.75;5095148;28;20171;-71
2021/03/28 00:49:46;;;;;;;9.33;3.07;;;;;;;2.01;82.10;101783.81;5094868;28;20209;-71
2021/03/28 00:52:17;;;;;;;10.13;2.80;;;;;;;1.90;82.61;101802.28;5094391;28;20714;-71
2021/03/28 00:54:48;;;;;;;14.90;3.70;;;;;;;1.91;83.04;101798.75;5096496;28;20254;-71
2021/03/28 00:57:27;;;;;;;6.17;2.73;;;;;;;1.86;83.00;101790.88;5095400;28;20164;-71
2021/03/28 00:59:56;;;;;;;7.97;2.93;;;;;;;1.86;82.85;101808.44;5094242;28;20186;-70
2021/03/28 01:02:28;;;;;;;9.90;3.43;;;;;;;1.86;83.19;101808.44;5094401;28;20235;-70
2021/03/28 01:05:25;;;;;;;8.57;3.27;;;;;;;1.91;82.61;101819.81;5096051;28;20205;-70
2021/03/28 01:07:59;;;;;;;5.93;3.07;;;;;;;1.92;82.84;101821.56;5081118;28;20209;-70
2021/03/28 01:10:48;;;;;;;10.30;3.37;;;;;;;1.82;83.51;101810.16;5095348;28;20716;-70
2021/03/28 01:13:29;;;;;;;10.17;3.53;;;;;;;1.79;83.31;101827.72;5095181;28;20160;-70
2021/03/28 01:16:16;;;;;;;9.93;3.60;;;;;;;1.88;83.41;101830.38;5093306;28;20164;-71
2021/03/28 01:19:12;;;;;;;9.37;3.67;;;;;;;1.80;83.55;101840.00;5093736;28;20259;-71
2021/03/28 01:21:56;;;;;;;5.67;3.80;;;;;;;1.72;83.63;101826.84;5093479;28;20667;-71
2021/03/28 01:24:34;;;;;;;11.90;3.33;;;;;;;1.65;84.17;101838.25;5095404;28;20216;-70
2021/03/28 01:27:10;;;;;;;8.27;3.23;;;;;;;1.65;84.42;101840.03;5094010;28;20265;-71
2021/03/28 01:29:46;;;;;;;10.97;3.87;;;;;;;1.66;84.28;101837.38;5093047;28;20193;-71
2021/03/28 01:32:47;;;;;;;9.03;3.90;;;;;;;1.64;84.33;101830.38;5093612;28;20522;-71
2021/03/28 01:35:15;;;;;;;10.07;3.73;;;;;;;1.66;84.45;101839.16;5093677;28;20214;-71
2021/03/28 01:38:18;;;;;;;7.17;3.60;;;;;;;1.69;84.63;101829.50;5075982;28;20277;-70
2021/03/28 01:40:55;;;;;;;8.77;3.80;;;;;;;1.75;84.10;101829.47;5094959;28;20538;-70
2021/03/28 01:43:38;;;;;;;6.77;3.33;;;;;;;1.80;83.95;101842.63;5093346;28;20169;-71
2021/03/28 01:46:25;;;;;;;12.03;4.60;;;;;;;1.85;83.85;101825.06;5093598;28;20156;-70
2021/03/28 01:48:57;;;;;;;9.30;3.90;;;;;;;1.84;83.75;101824.19;5095132;28;20183;-70
2021/03/28 01:51:44;;;;;;;8.67;3.70;;;;;;;1.85;83.74;101825.06;5094556;28;20220;-70
2021/03/28 01:54:16;;;;;;;8.17;3.37;;;;;;;1.96;83.36;101822.44;5095613;28;20216;-70
2021/03/28 01:56:50;;;;;;;7.17;3.80;;;;;;;1.96;83.22;101825.06;5095254;28;20174;-70
2021/03/28 01:59:23;;;;;;;9.53;3.67;;;;;;;1.80;83.46;101824.19;5093971;28;20558;-69
2021/03/28 02:01:55;;;;;;;9.83;3.80;;;;;;;1.80;83.54;101824.19;5093448;28;20187;-71
2021/03/28 02:04:39;;;;;;;10.87;4.13;;;;;;;1.73;84.26;101827.72;5093021;28;20573;-71
2021/03/28 02:07:29;;;;;;;10.47;3.60;;;;;;;1.71;84.27;101829.47;5075784;28;20200;-71
2021/03/28 02:10:20;;;;;;;12.83;3.63;;;;;;;1.65;84.35;101830.38;5075639;28;20670;-71
2021/03/28 02:12:56;;;;;;;11.13;3.77;;;;;;;1.64;84.37;101827.75;5092369;28;20192;-70
2021/03/28 02:15:37;;;;;;;8.20;3.77;;;;;;;1.60;84.58;101823.34;5092878;28;20593;-70
2021/03/28 02:18:24;;;;;;;11.00;4.10;;;;;;;1.57;84.92;101824.25;5092662;28;20232;-70
2021/03/28 02:20:52;;;;;;;12.03;4.37;;;;;;;1.52;84.86;101826.00;5092306;28;20201;-71
2021/03/28 02:23:38;;;;;;;9.63;4.30;;;;;;;1.48;84.89;101827.72;5092541;28;20170;-71
2021/03/28 02:26:23;;;;;;;8.00;3.90;;;;;;;1.36;85.61;101829.47;5092361;28;20162;-70
2021/03/28 02:28:59;;;;;;;9.90;4.33;;;;;;;1.25;85.88;101832.13;5096342;28;20209;-70
2021/03/28 02:31:32;;;;;;;11.20;4.77;;;;;;;1.30;85.95;101835.63;5096504;28;20174;-70
2021/03/28 02:34:07;;;;;;;9.47;3.77;;;;;;;1.39;85.41;101840.88;5096705;28;20171;-70
2021/03/28 02:36:47;;;;;;;11.10;4.17;;;;;;;1.30;86.63;101838.25;5097576;28;20180;-70
2021/03/28 02:39:28;;;;;;;10.57;4.03;;;;;;;1.28;86.41;101845.25;5096217;28;20202;-70
2021/03/28 02:42:02;;;;;;;10.13;3.73;;;;;;;1.33;86.24;101843.50;5096249;28;20651;-70
2021/03/28 02:44:53;;;;;;;11.57;4.67;;;;;;;1.23;86.20;101850.53;5097865;28;20619;-71
2021/03/28 02:47:53;;;;;;;9.10;4.20;;;;;;;1.20;86.27;101847.00;5097387;28;20186;-71
2021/03/28 02:50:30;;;;;;;7.97;4.00;;;;;;;1.26;86.53;101849.66;5096273;28;20270;-71
2021/03/28 02:53:11;;;;;;;12.67;4.40;;;;;;;1.21;86.63;101854.03;5096473;28;20156;-71
2021/03/28 02:56:03;;;;;;;7.23;3.90;;;;;;;1.22;86.86;101861.91;5096470;28;20202;-71
2021/03/28 02:59:06;;;;;;;14.30;3.70;;;;;;;1.17;86.91;101858.41;5096318;28;20201;-69
2021/03/28 03:01:55;;;;;;;13.47;4.07;;;;;;;1.27;86.64;101861.03;5097796;28;20783;-70
2021/03/28 03:05:00;;;;;;;13.37;4.47;;;;;;;1.22;86.57;101864.53;5079963;28;20185;-70
2021/03/28 03:07:53;;;;;;;11.80;4.07;;;;;;;1.41;86.33;101883.84;5097433;28;20246;-72
2021/03/28 03:10:40;;;;;;;12.80;4.23;;;;;;;1.36;86.39;101864.56;5098092;28;20198;-71
2021/03/28 03:13:38;;;;;;;12.60;4.20;;;;;;;1.35;85.89;101870.69;5097854;28;20254;-71
2021/03/28 03:16:12;;;;;;;14.67;4.17;;;;;;;1.36;85.75;101872.44;5097032;28;20233;-71
2021/03/28 03:18:56;;;;;;;9.07;3.97;;;;;;;1.31;86.08;101862.81;5095876;28;20221;-70
2021/03/28 03:21:36;;;;;;;10.07;3.93;;;;;;;1.25;85.90;101863.66;5097316;28;20198;-70
2021/03/28 03:24:28;;;;;;;7.27;3.83;;;;;;;1.15;86.33;101872.44;5099041;28;20239;-71
2021/03/28 03:27:24;;;;;;;10.23;3.77;;;;;;;1.07;86.75;101864.50;5098547;28;20155;-69
2021/03/28 03:30:18;;;;;;;14.83;4.10;;;;;;;1.04;87.23;101876.75;5097855;28;20735;-70
2021/03/28 03:33:11;;;;;;;10.97;4.17;;;;;;;1.00;86.88;101877.63;5096159;28;20166;-70
2021/03/28 03:35:51;;;;;;;15.10;4.97;;;;;;;1.06;87.10;101877.63;5097537;28;20167;-70
2021/03/28 03:38:37;;;;;;;9.63;4.30;;;;;;;0.99;87.46;101879.38;5095318;28;20260;-70
2021/03/28 03:41:22;;;;;;;15.40;4.07;;;;;;;0.89;87.56;101875.84;5096122;28;20706;-70
2021/03/28 03:44:05;;;;;;;12.37;4.80;;;;;;;0.88;87.62;101874.09;5078785;28;20165;-71
2021/03/28 03:46:31;;;;;;;13.77;4.83;;;;;;;0.92;87.74;101869.72;5096976;28;20158;-70
2021/03/28 03:49:13;;;;;;;12.37;4.90;;;;;;;0.96;87.33;101874.13;5096819;28;20201;-71
2021/03/28 03:51:49;;;;;;;11.43;4.90;;;;;;;0.98;87.00;101882.88;5095315;28;20219;-71
2021/03/28 03:54:39;;;;;;;12.10;4.20;;;;;;;0.98;87.13;101880.25;5096143;28;20241;-71
2021/03/28 03:57:22;;;;;;;12.10;4.90;;;;;;;0.87;87.89;101876.72;5096791;28;20531;-71
2021/03/28 03:59:56;;;;;;;13.17;4.80;;;;;;;0.81;88.61;101888.09;5095343;28;20201;-71
2021/03/28 04:02:29;;;;;;;14.37;5.23;;;;;;;0.81;88.56;101880.22;5094704;28;20677;-71
2021/03/28 04:05:12;;;;;;;12.47;4.90;;;;;;;0.82;88.57;101881.09;5096255;28;20246;-71
2021/03/28 04:07:46;;;;;;;10.50;5.27;;;;;;;0.89;88.51;101881.09;5096554;28;20371;-71
2021/03/28 04:10:31;;;;;;;17.47;5.47;;;;;;;0.87;88.47;101872.34;5096120;28;20201;-71
2021/03/28 04:13:23;;;;;;;15.57;5.53;;;;;;;0.84;88.92;101877.59;5095733;28;20642;-71
2021/03/28 04:16:07;;;;;;;13.27;5.03;;;;;;;0.92;88.66;101880.25;5095961;28;20162;-70
2021/03/28 04:18:54;;;;;;;16.50;5.57;;;;;;;0.87;88.37;101874.09;5096092;28;20194;-70
2021/03/28 04:21:37;;;;;;;15.33;5.83;;;;;;;0.81;88.82;101871.44;5095692;28;20562;-71
2021/03/28 04:24:14;;;;;;;13.73;5.43;;;;;;;0.83;89.30;101873.22;5094953;28;20212;-71
2021/03/28 04:27:19;;;;;;;15.50;6.37;;;;;;;0.86;89.42;101874.97;5095787;28;20181;-70
2021/03/28 04:29:47;;;;;;;13.17;6.77;;;;;;;0.82;89.55;101874.09;5094635;28;20190;-71
2021/03/28 04:32:25;;;;;;;15.20;6.40;;;;;;;0.78;90.06;101876.69;5094317;28;20530;-71
2021/03/28 04:35:15;;;;;;;19.93;6.43;;;;;;;0.74;89.82;101878.41;5094400;28;20203;-71
2021/03/28 04:37:59;;;;;;;14.20;6.10;;;;;;;0.81;89.43;101874.94;5077472;28;20246;-69
2021/03/28 04:40:36;;;;;;;11.93;5.33;;;;;;;0.83;89.56;101873.22;5094895;28;20658;-71
2021/03/28 04:43:22;;;;;;;18.87;6.17;;;;;;;0.80;89.36;101880.22;5094374;28;20158;-71
2021/03/28 04:46:00;;;;;;;17.87;6.87;;;;;;;0.87;89.42;101874.09;5094480;28;20166;-71
2021/03/28 04:48:53;;;;;;;17.87;6.33;;;;;;;0.87;89.03;101887.22;5095679;28;20249;-71
2021/03/28 04:51:48;;;;;;;16.57;5.80;;;;;;;0.98;88.82;101892.53;5094996;28;20216;-70
2021/03/28 04:54:32;;;;;;;22.93;6.80;;;;;;;0.89;88.35;101878.47;5096935;28;20655;-71
2021/03/28 04:57:14;;;;;;;13.33;5.17;;;;;;;0.89;88.84;101883.75;5094374;28;20184;-71
2021/03/28 05:00:14;;;;;;;13.63;6.00;;;;;;;0.92;87.58;101886.38;5093766;28;20199;-70
2021/03/28 05:03:09;;;;;;;16.27;5.17;;;;;;;0.93;87.36;101888.13;5093458;28;20241;-69
2021/03/28 05:06:00;;;;;;;13.77;5.80;;;;;;;0.86;87.61;101886.34;5093665;28;20180;-70
2021/03/28 05:08:28;;;;;;;14.93;5.30;;;;;;;1.01;86.97;101890.78;5093358;28;20198;-71
2021/03/28 05:11:26;;;;;;;18.67;5.50;;;;;;;1.00;87.30;101890.78;5094445;28;20249;-71
2021/03/28 05:14:28;;;;;;;14.50;5.50;;;;;;;0.99;87.30;101892.53;5094383;28;20155;-70
2021/03/28 05:17:03;;;;;;;15.63;5.37;;;;;;;1.04;87.01;101888.16;5093116;28;20158;-71
2021/03/28 05:20:06;;;;;;;17.47;5.63;;;;;;;1.08;86.41;101895.16;5093321;28;20197;-71
2021/03/28 05:23:08;;;;;;;17.60;5.00;;;;;;;1.17;85.85;101886.47;5094140;28;20205;-70
2021/03/28 05:26:16;;;;;;;12.70;6.03;;;;;;;1.10;86.55;101895.19;5094382;28;20256;-71
2021/03/28 05:28:58;;;;;;;18.27;5.47;;;;;;;1.16;86.01;101897.84;5092954;28;20616;-72
2021/03/28 05:31:45;;;;;;;14.50;4.90;;;;;;;1.30;85.61;101893.47;5093271;28;20249;-71
2021/03/28 05:34:33;;;;;;;19.33;5.77;;;;;;;1.29;85.06;101889.09;5093007;28;20163;-71
2021/03/28 05:37:26;;;;;;;12.27;4.87;;;;;;;1.45;84.61;101897.88;5094061;28;20163;-71
2021/03/28 05:40:11;;;;;;;19.30;5.47;;;;;;;1.42;85.08;101888.22;5100085;28;20194;-71
2021/03/28 05:42:55;;;;;;;12.17;4.87;;;;;;;1.66;84.23;101899.66;5106480;28;20182;-71
2021/03/28 05:45:42;;;;;;;15.97;5.40;;;;;;;1.39;85.04;101887.34;5108550;28;20240;-70
2021/03/28 05:48:18;;;;;;;14.77;5.17;;;;;;;1.55;84.32;101887.41;5104922;28;20162;-70
2021/03/28 05:50:54;;;;;;;12.90;4.70;;;;;;;1.67;83.92;101885.63;5108696;28;20162;-71
2021/03/28 05:53:48;;;;;;;17.97;5.60;;;;;;;1.71;83.99;101896.16;5089121;28;20197;-71
2021/03/28 05:56:42;;;;;;;14.13;5.43;;;;;;;1.89;82.89;101903.19;5105174;28;20257;-71
2021/03/28 05:59:28;;;;;;;11.83;5.00;;;;;;;2.01;81.52;101887.38;5101442;28;20319;-71
2021/03/28 06:02:15;;;;;;;18.13;5.27;;;;;;;2.03;81.05;101895.28;5093341;28;20186;-71
2021/03/28 06:05:18;;;;;;;13.57;5.00;;;;;;;1.95;81.35;101897.94;5093124;28;20229;-71
2021/03/28 06:08:08;;;;;;;14.87;4.37;;;;;;;2.04;81.02;101900.53;5096120;28;20169;-70
2021/03/28 06:11:05;;;;;;;16.57;4.47;;;;;;;2.09;80.66;101898.78;5094863;28;20165;-71
2021/03/28 06:13:45;;;;;;;12.63;4.73;;;;;;;2.05;80.64;101883.00;5094143;28;20168;-72
2021/03/28 06:16:20;;;;;;;13.93;5.13;;;;;;;2.14;80.41;101893.50;5094302;28;20561;-71
2021/03/28 06:19:00;;;;;;;15.03;4.23;;;;;;;2.38;79.29;101900.50;5092949;28;20218;-72
2021/03/28 06:22:01;;;;;;;13.73;5.13;;;;;;;2.48;78.46;101894.31;5093969;28;20196;-71
2021/03/28 06:24:51;;;;;;;12.67;4.70;;;;;;;2.59;78.10;101895.16;5092591;28;20180;-71
2021/03/28 06:27:55;;;;;;;14.33;4.77;;;;;;;2.38;77.50;101896.09;5092642;28;20243;-71
2021/03/28 06:30:23;;;;;;;9.80;4.30;;;;;;;2.54;78.58;101885.50;5093780;28;20226;-71
2021/03/28 06:32:57;;;;;;;17.40;4.73;;;;;;;2.62;78.27;101889.03;5093400;28;20556;-69
2021/03/28 06:35:31;;;;;;;14.00;4.73;;;;;;;2.83;77.21;101900.34;5094724;28;20173;-70
2021/03/28 06:38:08;;;;;;;11.13;4.77;;;;;;;2.86;77.02;101898.56;5093244;28;20160;-70
2021/03/28 06:40:59;;;;;;;18.47;5.90;;;;;;;2.88;77.01;101891.53;5093346;28;20168;-71
2021/03/28 06:44:03;;;;;;;17.27;4.60;;;;;;;2.85;77.07;101891.53;5092671;28;20522;-71
2021/03/28 06:46:50;;;;;;;11.20;4.27;;;;;;;3.06;76.27;101892.34;5093643;28;20167;-70
2021/03/28 06:49:21;;;;;;;12.23;4.30;;;;;;;3.31;75.00;101892.19;5091895;28;20204;-71
2021/03/28 06:52:23;;;;;;;11.60;4.93;;;;;;;2.93;76.28;101890.63;5093603;28;20609;-71
2021/03/28 06:55:14;;;;;;;12.80;4.17;;;;;;;3.32;74.03;101878.97;5093225;28;20204;-71
2021/03/28 06:58:11;;;;;;;11.47;4.80;;;;;;;3.18;75.75;101890.50;5092262;28;20170;-71
2021/03/28 07:00:56;;;;;;;13.00;4.67;;;;;;;3.49;74.87;101896.47;5092085;28;20173;-71
2021/03/28 07:03:40;;;;;;;14.80;4.30;;;;;;;3.72;74.51;101890.16;5092339;28;20178;-71
2021/03/28 07:06:14;;;;;;;13.47;4.33;;;;;;;3.50;73.64;101888.53;5093135;28;20181;-71
2021/03/28 07:08:56;;;;;;;15.07;4.47;;;;;;;3.69;73.73;101899.81;5093441;28;20285;-71
2021/03/28 07:11:40;;;;;;;14.07;4.23;;;;;;;3.82;73.30;101892.72;5093148;28;20630;-70
2021/03/28 07:14:49;;;;;;;13.50;3.63;;;;;;;4.20;72.29;101905.56;5096520;28;20512;-71
2021/03/28 07:17:52;;;;;;;13.80;4.17;;;;;;;4.00;71.96;101903.97;5069926;28;20658;-71
2021/03/28 07:20:23;;;;;;;12.97;3.77;;;;;;;3.86;71.87;101912.91;5096808;28;20197;-71
2021/03/28 07:23:26;;;;;;;15.20;3.97;;;;;;;4.21;71.22;101908.19;5097143;28;20198;-72
2021/03/28 07:26:06;;;;;;;12.27;4.27;;;;;;;3.99;71.59;101906.63;5096624;28;20181;-70
2021/03/28 07:29:03;;;;;;;12.20;3.63;;;;;;;4.02;71.64;101915.41;5096547;28;20217;-71
2021/03/28 07:31:42;;;;;;;13.70;3.83;;;;;;;4.25;70.46;101896.69;5096926;28;20166;-71
2021/03/28 07:34:32;;;;;;;9.43;3.90;;;;;;;4.05;71.18;101906.56;5095136;28;20590;-72
2021/03/28 07:37:19;;;;;;;16.93;4.90;;;;;;;3.83;71.61;101903.25;5096751;28;20204;-71
2021/03/28 07:40:06;;;;;;;10.00;3.63;;;;;;;4.39;69.16;101907.13;5096491;28;20223;-72
2021/03/28 07:42:44;;;;;;;15.07;3.80;;;;;;;4.35;69.64;101902.75;5095168;28;20201;-70
2021/03/28 07:45:20;;;;;;;11.37;3.20;;;;;;;4.50;69.29;101905.25;5096708;28;20166;-71
2021/03/28 07:48:23;;;;;;;14.77;4.20;;;;;;;4.71;67.67;101905.00;5096221;28;20569;-72
2021/03/28 07:51:08;;;;;;;10.00;3.40;;;;;;;4.60;67.45;101906.03;5094654;28;20182;-71
2021/03/28 07:53:52;;;;;;;12.63;3.50;;;;;;;4.54;67.89;101906.09;5096543;28;20257;-70
2021/03/28 07:56:38;;;;;;;15.37;4.47;;;;;;;4.20;69.92;101918.78;5096515;28;20563;-72
2021/03/28 07:59:12;;;;;;;12.50;3.83;;;;;;;4.68;67.72;101925.31;5095755;28;20194;-71
2021/03/28 08:02:11;;;;;;;11.77;3.77;;;;;;;4.94;66.31;101927.66;5094742;28;20198;-71
2021/03/28 08:04:59;;;;;;;12.80;3.40;;;;;;;4.71;67.24;101931.44;5096226;28;20194;-71
2021/03/28 08:07:38;;;;;;;10.23;3.20;;;;;;;5.09;66.11;101924.81;5078237;28;20212;-70
2021/03/28 08:10:22;;;;;;;11.03;3.57;;;;;;;5.00;66.30;101928.47;5094405;28;20749;-71
2021/03/28 08:13:24;;;;;;;13.70;3.90;;;;;;;5.26;64.75;101914.03;5095908;28;20696;-70
2021/03/28 08:16:14;;;;;;;12.50;3.23;;;;;;;4.84;66.11;101915.47;5094282;28;20272;-70
2021/03/28 08:18:56;;;;;;;7.67;3.17;;;;;;;5.29;65.09;101927.22;5094352;28;20299;-71
2021/03/28 08:21:31;;;;;;;9.17;4.40;;;;;;;4.99;66.20;101923.19;5094250;28;20252;-70
2021/03/28 08:24:32;;;;;;;14.83;3.67;;;;;;;5.14;65.64;101916.81;5093918;28;20233;-70
2021/03/28 08:27:22;;;;;;;15.20;4.00;;;;;;;4.99;66.14;101917.91;5095328;28;20179;-71
2021/03/28 08:30:13;;;;;;;10.37;3.50;;;;;;;5.17;65.33;101915.00;5094361;28;20304;-71
2021/03/28 08:33:02;;;;;;;19.60;5.07;;;;;;;5.54;64.90;101917.13;5093888;28;20215;-70
2021/03/28 08:35:48;;;;;;;11.73;4.20;;;;;;;5.81;63.98;101914.06;5095267;28;20261;-71
2021/03/28 08:38:38;;;;;;;10.10;3.30;;;;;;;5.44;64.54;101915.53;5093564;28;20174;-71
2021/03/28 08:41:19;;;;;;;14.67;3.83;;;;;;;5.79;63.28;101925.59;5095339;28;20205;-72
2021/03/28 08:44:11;;;;;;;14.10;3.80;;;;;;;5.90;62.91;101929.84;5093892;28;20185;-71
2021/03/28 08:47:07;;;;;;;16.23;5.00;;;;;;;6.01;63.04;101913.78;5094193;28;20173;-71
2021/03/28 08:49:54;;;;;;;10.73;3.80;;;;;;;6.44;61.35;101916.53;5058391;28;20218;-71
2021/03/28 08:52:56;;;;;;;17.37;3.87;;;;;;;6.20;61.09;101911.69;5094973;28;20227;-71
2021/03/28 08:55:51;;;;;;;14.63;3.30;;;;;;;6.47;60.37;101903.22;5077369;28;20261;-71
2021/03/28 08:58:22;;;;;;;15.23;4.43;;;;;;;6.89;59.12;101900.63;5093625;28;20180;-71
2021/03/28 09:00:59;;;;;;;14.23;4.03;;;;;;;6.55;59.63;101898.63;5094824;28;20207;-70
2021/03/28 09:03:52;;;;;;;13.83;3.60;;;;;;;6.49;59.32;101908.50;5093648;28;20592;-71
2021/03/28 09:06:20;;;;;;;13.77;3.33;;;;;;;6.83;58.77;101900.75;5095188;28;20181;-71
2021/03/28 09:08:57;;;;;;;11.67;3.70;;;;;;;6.81;58.52;101902.56;5076654;28;20723;-71
2021/03/28 09:11:36;;;;;;;13.43;3.23;;;;;;;6.51;58.79;101920.81;5093660;28;20166;-70
2021/03/28 09:14:12;;;;;;;10.43;3.03;;;;;;;6.72;58.53;101893.00;5094597;28;20241;-71
2021/03/28 09:16:57;;;;;;;10.33;2.90;;;;;;;6.59;57.58;101902.97;5076345;28;20211;-72
2021/03/28 09:19:56;;;;;;;12.53;3.47;;;;;;;6.88;57.14;101898.88;5093038;28;20207;-71
2021/03/28 09:22:45;;;;;;;16.13;3.80;;;;;;;7.26;56.01;101892.75;5094306;28;20214;-71
2021/03/28 09:25:23;;;;;;;11.80;3.07;;;;;;;6.98;57.12;101889.81;5092917;28;20674;-71
2021/03/28 09:28:12;;;;;;;16.13;3.47;;;;;;;7.24;56.67;101891.91;5093008;28;20709;-71
2021/03/28 09:30:43;;;;;;;12.97;3.60;;;;;;;7.11;56.85;101893.09;5092988;28;20207;-71
2021/03/28 09:33:29;;;;;;;9.37;2.70;;;;;;;7.56;55.47;101890.28;5093157;28;20163;-72
2021/03/28 09:36:32;;;;;;;13.53;3.03;;;;;;;7.70;55.84;101889.03;5092828;28;20619;-72
2021/03/28 09:39:15;;;;;;;12.37;2.93;;;;;;;7.17;57.39;101883.19;5094038;28;20284;-70
2021/03/28 09:42:05;;;;;;;12.17;3.20;;;;;;;8.10;54.15;101883.59;5092981;28;20280;-71
2021/03/28 09:44:39;;;;;;;10.93;3.00;;;;;;;8.42;53.32;101877.47;5093960;28;20165;-71
2021/03/28 09:47:33;;;;;;;9.57;3.43;;;;;;;7.69;54.54;101883.75;5093098;28;20259;-70
2021/03/28 09:50:11;;;;;;;15.10;3.53;;;;;;;7.81;54.75;101870.19;5076170;28;20657;-72
2021/03/28 09:52:47;;;;;;;11.43;2.87;;;;;;;8.02;54.21;101874.94;5092579;28;20162;-70
2021/03/28 09:55:27;;;;;;;18.97;2.90;;;;;;;8.23;53.84;101884.16;5093162;28;20162;-70
2021/03/28 09:58:40;;;;;;;13.40;3.07;;;;;;;8.50;53.44;101885.22;5076043;28;20188;-71
2021/03/28 10:01:22;;;;;;;10.03;3.00;;;;;;;8.60;53.64;101872.56;5099652;28;20201;-71
2021/03/28 10:04:06;;;;;;;14.57;3.53;;;;;;;8.92;52.44;101867.19;5092282;28;20176;-71
2021/03/28 10:06:31;;;;;;;15.27;3.43;;;;;;;8.71;52.55;101873.97;5091829;28;20171;-71
2021/03/28 10:09:18;;;;;;;14.20;3.37;;;;;;;8.84;52.60;101869.16;5092333;28;20205;-72
2021/03/28 10:11:49;;;;;;;10.33;3.03;;;;;;;8.95;52.43;101859.09;5093121;28;20174;-73
2021/03/28 10:14:52;;;;;;;7.37;2.73;;;;;;;8.64;52.61;101871.56;5094072;28;20180;-72
2021/03/28 10:17:39;;;;;;;18.23;3.60;;;;;;;8.45;53.04;101850.75;5091680;28;20170;-71
2021/03/28 10:20:25;;;;;;;15.13;3.10;;;;;;;9.14;51.32;101856.72;5093398;28;20569;-73
2021/03/28 10:23:00;;;;;;;13.23;3.47;;;;;;;9.81;50.48;101848.38;5092515;28;20197;-71
2021/03/28 10:25:36;;;;;;;10.83;2.93;;;;;;;9.44;50.73;101862.03;5093251;28;20625;-72
2021/03/28 10:28:39;;;;;;;13.43;3.37;;;;;;;9.20;51.97;101855.66;5094220;28;20240;-73
2021/03/28 10:31:24;;;;;;;15.47;3.40;;;;;;;8.52;52.98;101845.25;5094525;28;20276;-71
2021/03/28 10:34:38;;;;;;;10.43;3.10;;;;;;;8.72;53.07;101850.91;5092495;28;20174;-71
2021/03/28 10:37:16;;;;;;;14.27;3.50;;;;;;;9.44;51.20;101849.56;5092345;28;20266;-71
2021/03/28 10:39:49;;;;;;;14.60;3.10;;;;;;;10.05;49.64;101854.69;5092004;28;20232;-71
2021/03/28 10:42:26;;;;;;;9.77;2.53;;;;;;;10.57;48.35;101840.38;5092703;28;20194;-71
2021/03/28 10:45:10;;;;;;;16.03;3.30;;;;;;;10.53;48.17;101849.41;5092512;28;20542;-71
2021/03/28 10:48:14;;;;;;;11.13;3.03;;;;;;;10.85;46.86;101851.75;5093870;28;20166;-72
2021/03/28 10:51:04;;;;;;;10.60;3.23;;;;;;;10.87;48.11;101849.91;5098146;28;20196;-72
2021/03/28 10:54:06;;;;;;;11.97;3.37;;;;;;;10.50;48.33;101846.88;5098041;28;20619;-72
2021/03/28 10:56:40;;;;;;;11.70;3.27;;;;;;;10.16;48.60;101836.50;5099626;28;20174;-73
2021/03/28 10:59:30;;;;;;;11.20;2.60;;;;;;;10.55;48.64;101840.44;5098600;28;20197;-72
2021/03/28 11:02:20;;;;;;;10.53;2.93;;;;;;;11.04;47.05;101832.34;5097200;28;20237;-71
2021/03/28 11:05:29;;;;;;;11.40;2.83;;;;;;;10.94;46.54;101822.03;5101278;28;20166;-71
2021/03/28 11:08:06;;;;;;;10.90;3.20;;;;;;;12.39;44.80;101836.53;5098367;28;20588;-72
2021/03/28 11:10:43;;;;;;;10.57;3.30;;;;;;;12.08;43.64;101816.47;5097757;28;20162;-72
2021/03/28 11:13:45;;;;;;;8.10;2.90;;;;;;;11.23;45.82;101822.69;5098228;28;20162;-70
2021/03/28 11:16:48;;;;;;;12.50;3.03;;;;;;;12.12;45.12;101823.41;5097035;28;20291;-71
2021/03/28 11:20:04;;;;;;;12.30;3.20;;;;;;;12.78;43.02;101820.44;5097044;28;20715;-71
2021/03/28 11:22:45;;;;;;;11.23;2.80;;;;;;;11.91;43.84;101828.84;5096696;28;20546;-73
2021/03/28 11:25:26;;;;;;;10.80;2.60;;;;;;;12.12;42.96;101802.00;5098079;28;20166;-71
2021/03/28 11:28:15;;;;;;;9.50;2.60;;;;;;;15.14;38.02;101810.09;5096856;28;20178;-71
2021/03/28 11:30:44;;;;;;;8.80;2.30;;;;;;;16.13;35.79;101801.63;5079236;28;20179;-71
2021/03/28 11:33:22;;;;;;;8.90;2.40;;;;;;;17.68;32.85;101802.44;5096279;28;20232;-72
2021/03/28 11:35:57;;;;;;;13.23;3.00;;;;;;;15.49;36.28;101798.19;5096178;28;20170;-72
2021/03/28 11:38:22;;;;;;;9.27;2.90;;;;;;;12.01;42.99;101798.94;5095639;28;20208;-72
2021/03/28 11:40:47;;;;;;;10.13;2.67;;;;;;;13.15;41.25;101801.69;5095791;28;20178;-72
2021/03/28 11:43:12;;;;;;;9.03;2.30;;;;;;;12.58;42.52;101793.72;5096716;28;20166;-72
2021/03/28 11:46:05;;;;;;;10.10;2.43;;;;;;;12.43;43.16;101788.13;5094875;28;20178;-71
2021/03/28 11:48:38;;;;;;;7.90;2.33;;;;;;;12.48;42.34;101777.19;5099898;28;20194;-71
2021/03/28 11:51:39;;;;;;;7.77;2.57;;;;;;;13.10;41.83;101776.06;5096355;28;20181;-72
2021/03/28 11:54:10;;;;;;;9.17;2.40;;;;;;;13.47;41.33;101793.06;5028321;28;20190;-71
2021/03/28 11:56:53;;;;;;;9.67;3.07;;;;;;;14.46;39.31;101785.22;5096263;28;20166;-71
2021/03/28 11:59:26;;;;;;;8.37;2.37;;;;;;;15.18;37.35;101784.78;5096431;28;20612;-71
2021/03/28 12:01:54;;;;;;;6.10;2.13;;;;;;;15.31;37.42;101794.75;5096611;28;20182;-71
2021/03/28 12:04:34;;;;;;;6.67;2.23;;;;;;;14.65;37.99;101777.91;5097272;28;20519;-72
2021/03/28 12:07:26;;;;;;;11.03;2.10;;;;;;;13.24;41.13;101781.63;5094871;28;20177;-72
2021/03/28 12:10:00;;;;;;;8.83;2.20;;;;;;;11.85;45.03;101785.34;5099130;28;20185;-72
2021/03/28 12:12:31;;;;;;;7.40;2.00;;;;;;;11.83;44.62;101781.00;5096644;28;20173;-72
2021/03/28 12:15:34;;;;;;;11.30;2.43;;;;;;;12.51;43.46;101771.69;5096227;28;20223;-72
2021/03/28 12:18:25;;;;;;;8.77;2.20;;;;;;;13.25;41.79;101783.38;5095938;28;20264;-72
2021/03/28 12:20:59;;;;;;;6.93;2.17;;;;;;;13.41;40.66;101775.47;5096124;28;20154;-72
2021/03/28 12:23:27;;;;;;;7.83;1.60;;;;;;;12.43;42.98;101765.84;5097480;28;20235;-72
2021/03/28 12:26:30;;;;;;;6.67;1.90;;;;;;;12.99;41.72;101764.97;5094995;28;20236;-71
2021/03/28 12:29:20;;;;;;;7.30;1.90;;;;;;;12.85;42.46;101771.00;5096771;28;20689;-71
2021/03/28 12:31:50;;;;;;;5.80;1.80;;;;;;;12.00;44.22;101778.47;5099036;28;20151;-73
2021/03/28 12:34:36;;;;;;;5.97;1.90;;;;;;;13.52;42.33;101761.50;5096509;28;20530;-72
2021/03/28 12:37:08;;;;;;;6.87;2.10;;;;;;;12.36;44.68;101741.16;5079339;28;20247;-73
2021/03/28 12:39:45;;;;;;;5.57;1.90;;;;;;;12.44;44.36;101738.13;5097779;28;20197;-73
2021/03/28 12:42:34;;;;;;;9.60;2.07;;;;;;;12.33;44.35;101749.34;5097599;28;20206;-72
2021/03/28 12:45:08;;;;;;;6.97;2.57;;;;;;;12.50;44.20;101732.47;5097366;28;20166;-71